Akaska, South Dakota
Current Conditions -  °F | °C
As of 5:52 PM on Wednesday 28 Jan 2015 (Local Time) from KMBG Reporting Station
Overcast Overcast  
Wind Chill: 23°   Ceiling: 1600
Heat Index: 36°   Visibility: 10mi
Dew Point: 29°   Wind: 32mph
Humidity: 76%   Direction: 340°NNW
Pressure: 29.96"   Gusts: 43mph
Location:  45.33°N, 100.12°W
Report Text: KMBG 282352Z AUTO 34028G37KT 10SM OVC016 02/M02 A2996 RMK AO2 PK WND 34037/2343 SLP164 T00221017 10122 20022 51060
Loading
Personal Weather Stations






























Interactive Weather Map New forecast layout! Learn more

10-Day Weather Forecast

Advertisements
Track Severe Weather on mobile